Marietta, PA (17547)

2:41 PM EST on December 08, 2016 (GMT -0500)
Casleton | | Change Station

Elev 308 ft 40.07 °N, 76.53 °W | Updated 0 second ago

Partly Cloudy
Partly Cloudy
42.6 °F
Feels Like 36 °F
N
12.1
Wind Variable Wind from WNW
Gusts 15.0 mph

Today
High -- | Low -- °F
--% Chance of Precip.
Yesterday
High -- | Low -- °F
Precip. -- in
Pressure 29.93 in
Visibility 10.0 miles
Clouds Clear
Windchill 36 °F
Dew Point 14 °F
Humidity 31%
Rainfall 0.00 in
Snow Depth Not available.
7:16 AM 4:40 PM
Waxing Gibbous, 66% visible
METAR KLNS 081853Z 30019G27KT 10SM CLR 06/M06 A2992 RMK AO2 PK WND 30027/1848 SLP135 T00611061
Pressure 29.93 in
Visibility 10.0 miles
Clouds Clear
Windchill 36 °F
Dew Point 14 °F
Humidity 31%
Rainfall 0.00 in
Snow Depth Not available.
7:16 AM 4:40 PM
Waxing Gibbous, 66% visible
METAR KLNS 081853Z 30019G27KT 10SM CLR 06/M06 A2992 RMK AO2 PK WND 30027/1848 SLP135 T00611061

10-Day Weather Forecast

Almanac

Astronomy

Dec. 08, 2016 Rise Set
Actual Time
Civil Twilight
Nautical Twilight
Astronomical Twilight
Moon
Length of Visible Light
Length of Day
Tomorrow will be .
, % of the Moon is Illuminated

Today's Extremes

State Highs State Lows

Community

WunderPhotos

Upload Photos

1,956,277 photos uploaded!

WunderBlog® & News

Nearby

Air Quality

  Air Quality AQ Index Pollutant
Not available.

Snow Depth

Station Depth Elevation

Earthquake Activity

City Distance Mag. Time & Date
Minimum magnitude displayed is 2.5.

Coastal Water Temperatures

Place Temperature

Stations

Nearby Weather Stations

Station Location Temp. Windchill Dew Point Humidity Wind Precip. Elev Updated Type
                   

Watches & Warnings

There are currently no watches in effect.